createdAt,value
2023-07-18T00:00:29.568Z,21.68
2023-07-18T00:05:35.441Z,21.85
2023-07-18T00:10:39.684Z,21.51
2023-07-18T00:15:46.248Z,21.25
2023-07-18T00:20:50.756Z,21.20
2023-07-18T00:25:55.736Z,21.33
2023-07-18T00:31:03.144Z,21.43
2023-07-18T00:36:07.809Z,21.37
2023-07-18T00:41:13.521Z,21.56
2023-07-18T00:46:20.690Z,21.38
2023-07-18T00:51:26.675Z,21.47
2023-07-18T00:56:32.363Z,21.42
2023-07-18T01:01:38.376Z,21.33
2023-07-18T01:06:43.185Z,21.01
2023-07-18T01:11:47.561Z,21.07
2023-07-18T01:16:53.948Z,20.73
2023-07-18T01:22:00.614Z,20.88
2023-07-18T01:27:05.306Z,20.80
2023-07-18T01:32:10.880Z,20.82
2023-07-18T01:37:18.198Z,20.86
2023-07-18T01:42:22.381Z,20.50
2023-07-18T01:47:28.315Z,19.98
2023-07-18T01:52:34.568Z,20.32
2023-07-18T01:57:48.037Z,20.30
2023-07-18T02:02:54.242Z,20.51
2023-07-18T02:08:00.384Z,20.78
2023-07-18T02:13:04.563Z,20.57
2023-07-18T02:18:09.842Z,20.50
2023-07-18T02:23:15.440Z,20.47
2023-07-18T02:28:19.953Z,20.37
2023-07-18T02:33:24.332Z,19.97
2023-07-18T02:38:31.018Z,19.99
2023-07-18T02:43:36.559Z,19.95
2023-07-18T02:48:41.056Z,20.06
2023-07-18T02:53:49.396Z,19.96
2023-07-18T02:58:54.104Z,20.21
2023-07-18T03:03:59.043Z,19.93
2023-07-18T03:09:08.182Z,20.31
2023-07-18T03:14:12.714Z,20.19
2023-07-18T03:19:17.206Z,20.09
2023-07-18T03:24:23.364Z,20.26
2023-07-18T03:29:27.425Z,20.04
2023-07-18T03:34:32.477Z,20.09
2023-07-18T03:39:38.075Z,20.27
2023-07-18T03:44:44.395Z,20.31
2023-07-18T03:49:48.829Z,20.29
2023-07-18T03:54:54.724Z,20.10
2023-07-18T03:59:59.239Z,19.98
2023-07-18T04:05:05.125Z,19.97
2023-07-18T04:10:13.134Z,20.45
2023-07-18T04:15:17.817Z,20.51
2023-07-18T04:20:23.408Z,20.65
2023-07-18T04:25:33.761Z,20.40
2023-07-18T04:30:38.168Z,20.64
2023-07-18T04:35:49.363Z,20.64
2023-07-18T04:40:54.973Z,20.82
2023-07-18T04:46:00.357Z,21.12
2023-07-18T04:51:04.934Z,21.42
2023-07-18T04:56:11.515Z,21.52
2023-07-18T05:01:20.236Z,21.43
2023-07-18T05:06:25.424Z,21.48
2023-07-18T05:11:33.105Z,21.69
2023-07-18T05:16:39.574Z,21.83
2023-07-18T05:21:43.734Z,21.85
2023-07-18T05:26:49.332Z,21.73
2023-07-18T05:31:53.580Z,22.16
2023-07-18T05:36:58.587Z,22.23
2023-07-18T05:42:04.452Z,22.49
2023-07-18T05:47:09.088Z,22.58
2023-07-18T05:52:13.831Z,22.77
2023-07-18T05:57:19.503Z,22.99
2023-07-18T06:02:24.087Z,23.04
2023-07-18T06:07:28.450Z,23.20
2023-07-18T06:12:34.874Z,23.27
2023-07-18T06:17:39.948Z,23.19
2023-07-18T06:22:45.545Z,23.44
2023-07-18T06:27:51.879Z,23.77
2023-07-18T06:32:56.762Z,23.82
2023-07-18T06:38:01.136Z,23.91
2023-07-18T06:43:06.955Z,24.14
2023-07-18T06:48:11.296Z,24.25
2023-07-18T06:53:15.990Z,24.46
2023-07-18T06:58:21.972Z,24.55
2023-07-18T07:03:28.359Z,24.90
2023-07-18T07:08:34.835Z,25.10
2023-07-18T07:13:40.643Z,25.30
2023-07-18T07:18:44.710Z,25.27
2023-07-18T07:23:48.859Z,25.36
2023-07-18T07:28:55.547Z,25.53
2023-07-18T07:34:00.440Z,25.68
2023-07-18T07:39:05.958Z,25.80
2023-07-18T07:44:11.933Z,26.08
2023-07-18T07:49:16.081Z,26.18
2023-07-18T07:54:20.893Z,26.25
2023-07-18T07:59:26.382Z,26.27
2023-07-18T08:04:31.736Z,26.30
2023-07-18T08:09:38.282Z,26.42
2023-07-18T08:14:46.063Z,26.79
2023-07-18T08:19:50.516Z,27.04
2023-07-18T08:24:54.945Z,27.58
2023-07-18T08:30:05.558Z,27.89
2023-07-18T08:35:10.747Z,28.38
2023-07-18T08:40:15.220Z,28.76
2023-07-18T08:45:24.971Z,28.80
2023-07-18T08:50:32.194Z,29.48
2023-07-18T08:55:38.179Z,29.98
2023-07-18T09:00:44.749Z,30.34
2023-07-18T09:05:52.742Z,30.73
2023-07-18T09:11:04.860Z,30.90
2023-07-18T09:16:18.804Z,31.14
2023-07-18T09:21:25.189Z,31.22
2023-07-18T09:26:30.267Z,31.19
2023-07-18T09:31:36.465Z,31.22
2023-07-18T09:36:41.690Z,31.24
2023-07-18T09:41:46.683Z,31.11
2023-07-18T09:46:53.333Z,31.44
2023-07-18T09:52:04.433Z,31.72
2023-07-18T09:57:11.561Z,32.11
2023-07-18T10:02:17.880Z,32.34
2023-07-18T10:07:23.000Z,32.56
2023-07-18T10:12:27.976Z,32.80
2023-07-18T10:17:50.928Z,32.79
2023-07-18T10:22:59.867Z,32.88
2023-07-18T10:28:05.601Z,33.07
2023-07-18T10:33:11.932Z,32.92
2023-07-18T10:38:16.791Z,33.02
2023-07-18T10:43:23.638Z,32.90
2023-07-18T10:48:32.188Z,32.97
2023-07-18T10:53:37.027Z,33.08
2023-07-18T10:58:42.372Z,32.70
2023-07-18T11:09:17.168Z,32.18
2023-07-18T11:14:21.594Z,32.28
2023-07-18T11:19:29.549Z,32.75
2023-07-18T11:24:34.223Z,32.93
2023-07-18T11:29:38.548Z,32.86
2023-07-18T11:34:44.007Z,32.90
2023-07-18T11:39:49.787Z,33.35
2023-07-18T11:44:56.306Z,33.22
2023-07-18T11:50:10.089Z,33.43
2023-07-18T11:55:17.459Z,33.20
2023-07-18T12:00:27.824Z,32.74
2023-07-18T12:05:34.124Z,32.66
2023-07-18T12:10:40.051Z,32.68
2023-07-18T12:15:45.954Z,32.97
2023-07-18T12:20:55.101Z,33.23
2023-07-18T12:26:00.148Z,33.21
2023-07-18T12:31:08.386Z,32.76
2023-07-18T12:36:18.013Z,33.08
2023-07-18T12:41:24.176Z,32.91
2023-07-18T12:46:33.025Z,33.09
2023-07-18T12:51:39.345Z,33.40
2023-07-18T12:56:44.746Z,33.24
2023-07-18T13:01:49.010Z,33.00
2023-07-18T13:06:57.224Z,33.00
2023-07-18T13:12:03.942Z,33.02
2023-07-18T13:17:10.083Z,32.82
2023-07-18T13:22:17.420Z,32.82
2023-07-18T13:27:23.940Z,32.26
2023-07-18T13:32:28.284Z,32.65
2023-07-18T13:37:34.189Z,32.21
2023-07-18T13:42:38.448Z,32.11
2023-07-18T13:47:44.630Z,31.95
2023-07-18T13:52:50.717Z,31.84
2023-07-18T13:57:58.167Z,31.83
2023-07-18T14:03:13.278Z,31.82
2023-07-18T14:08:26.238Z,31.86
2023-07-18T14:13:32.104Z,31.86
2023-07-18T14:18:36.621Z,31.76
2023-07-18T14:23:42.116Z,31.93
2023-07-18T14:28:46.269Z,31.65
2023-07-18T14:34:04.692Z,31.89
2023-07-18T14:39:14.107Z,32.19
2023-07-18T14:44:19.556Z,32.58
2023-07-18T14:49:24.182Z,32.51
2023-07-18T14:54:30.104Z,32.42
2023-07-18T14:59:36.050Z,32.11
2023-07-18T15:04:40.808Z,32.39
2023-07-18T15:09:48.283Z,32.38
2023-07-18T15:14:54.263Z,32.25
2023-07-18T15:19:59.677Z,32.29
2023-07-18T15:25:07.811Z,31.92
2023-07-18T15:30:13.758Z,31.69
2023-07-18T15:35:18.578Z,31.69
2023-07-18T15:40:24.815Z,31.49
2023-07-18T15:45:32.362Z,31.50
2023-07-18T15:50:38.349Z,31.43
2023-07-18T15:55:44.263Z,31.51
2023-07-18T16:00:52.422Z,31.22
2023-07-18T16:05:58.676Z,31.13
2023-07-18T16:11:05.962Z,31.22
2023-07-18T16:16:16.653Z,31.16
2023-07-18T16:21:24.361Z,31.11
2023-07-18T16:26:31.584Z,31.15
2023-07-18T16:31:39.240Z,30.98
2023-07-18T16:36:43.881Z,31.00
2023-07-18T16:41:49.862Z,30.77
2023-07-18T16:46:54.612Z,30.74
2023-07-18T16:51:59.633Z,30.71
2023-07-18T16:57:05.407Z,30.56
2023-07-18T17:02:09.583Z,30.44
2023-07-18T17:07:14.229Z,30.28
2023-07-18T17:12:20.132Z,30.24
2023-07-18T17:17:24.578Z,30.09
2023-07-18T17:22:28.836Z,29.97
2023-07-18T17:27:34.882Z,29.56
2023-07-18T17:32:39.426Z,29.30
2023-07-18T17:37:43.577Z,29.25
2023-07-18T17:42:51.350Z,29.07
2023-07-18T17:47:58.668Z,28.96
2023-07-18T17:53:08.373Z,28.86
2023-07-18T17:58:14.089Z,28.75
2023-07-18T18:03:18.718Z,28.71
2023-07-18T18:08:23.563Z,28.77
2023-07-18T18:13:29.970Z,28.49
2023-07-18T18:18:34.321Z,28.43
2023-07-18T18:23:40.915Z,28.18
2023-07-18T18:28:48.466Z,28.16
2023-07-18T18:33:54.291Z,27.75
2023-07-18T18:38:59.124Z,27.60
2023-07-18T18:44:06.602Z,27.76
2023-07-18T18:49:25.049Z,27.36
2023-07-18T18:54:30.832Z,27.36
2023-07-18T18:59:39.875Z,27.56
2023-07-18T19:04:50.524Z,27.50
2023-07-18T19:09:54.895Z,27.35
2023-07-18T19:15:01.053Z,27.41
2023-07-18T19:20:06.431Z,27.11
2023-07-18T19:25:10.908Z,26.65
2023-07-18T19:30:17.552Z,26.64
2023-07-18T19:35:21.777Z,26.41
2023-07-18T19:40:26.362Z,26.37
2023-07-18T19:45:32.122Z,26.03
2023-07-18T19:50:40.359Z,25.94
2023-07-18T19:55:45.772Z,26.07
2023-07-18T20:00:51.153Z,26.03
2023-07-18T20:05:55.369Z,25.59
2023-07-18T20:10:59.642Z,25.28
2023-07-18T20:16:05.752Z,25.54
2023-07-18T20:21:09.978Z,25.17
2023-07-18T20:26:14.833Z,24.98
2023-07-18T20:31:22.161Z,25.12
2023-07-18T20:36:27.638Z,25.24
2023-07-18T20:41:32.172Z,25.45
2023-07-18T20:46:37.895Z,25.06
2023-07-18T20:51:43.268Z,25.19
2023-07-18T20:56:47.652Z,24.80
2023-07-18T21:01:53.508Z,24.91
2023-07-18T21:06:57.729Z,24.53
2023-07-18T21:12:02.140Z,24.50
2023-07-18T21:17:08.290Z,24.04
2023-07-18T21:22:12.547Z,23.85
2023-07-18T21:27:17.575Z,24.02
2023-07-18T21:32:23.871Z,24.06
2023-07-18T21:37:28.213Z,24.07
2023-07-18T21:42:32.476Z,23.81
2023-07-18T21:47:39.504Z,23.99
2023-07-18T21:52:45.636Z,23.97
2023-07-18T21:57:50.002Z,23.99
2023-07-18T22:02:55.657Z,23.92
2023-07-18T22:07:59.886Z,23.97
2023-07-18T22:13:04.568Z,23.69
2023-07-18T22:18:25.784Z,23.75
2023-07-18T22:23:32.220Z,23.55
2023-07-18T22:28:36.453Z,23.73
2023-07-18T22:33:42.661Z,23.63
2023-07-18T22:38:46.679Z,23.85
2023-07-18T22:43:51.196Z,23.82
2023-07-18T22:48:57.179Z,23.98
2023-07-18T22:54:02.003Z,24.31
2023-07-18T22:59:06.817Z,24.08
2023-07-18T23:04:12.971Z,24.45
2023-07-18T23:09:17.336Z,24.41
2023-07-18T23:14:21.819Z,24.35
2023-07-18T23:19:27.822Z,24.23
2023-07-18T23:24:32.089Z,24.10
2023-07-18T23:29:36.875Z,24.31
2023-07-18T23:34:42.466Z,24.33
2023-07-18T23:39:46.664Z,24.28
2023-07-18T23:44:50.860Z,24.06
2023-07-18T23:49:57.098Z,24.15
2023-07-18T23:55:01.549Z,24.05
